createdAt,value
2023-04-30T00:01:21.881Z,10.63
2023-04-30T00:04:26.464Z,10.68
2023-04-30T00:07:28.118Z,10.62
2023-04-30T00:10:29.977Z,10.67
2023-04-30T00:13:31.650Z,10.64
2023-04-30T00:16:33.428Z,10.57
2023-04-30T00:19:35.116Z,10.57
2023-04-30T00:22:36.739Z,10.55
2023-04-30T00:25:38.425Z,10.47
2023-04-30T00:28:40.232Z,10.23
2023-04-30T00:31:42.049Z,10.38
2023-04-30T00:34:43.708Z,10.32
2023-04-30T00:37:45.685Z,10.32
2023-04-30T00:40:47.401Z,10.34
2023-04-30T00:43:49.036Z,10.30
2023-04-30T00:46:50.593Z,10.24
2023-04-30T00:49:52.395Z,10.00
2023-04-30T00:52:54.304Z,10.16
2023-04-30T00:55:56.298Z,10.14
2023-04-30T00:58:58.003Z,10.07
2023-04-30T01:01:59.654Z,10.07
2023-04-30T01:05:05.270Z,9.98
2023-04-30T01:08:07.349Z,9.98
2023-04-30T01:11:30.940Z,10.05
2023-04-30T01:14:58.145Z,9.99
2023-04-30T01:18:19.763Z,9.72
2023-04-30T01:21:21.723Z,9.81
2023-04-30T01:24:47.648Z,9.87
2023-04-30T01:28:07.070Z,9.92
2023-04-30T01:31:21.851Z,9.84
2023-04-30T01:34:23.503Z,9.56
2023-04-30T01:37:44.467Z,9.67
2023-04-30T01:40:58.029Z,9.76
2023-04-30T01:44:21.308Z,9.73
2023-04-30T01:47:46.357Z,9.92
2023-04-30T01:50:50.038Z,9.93
2023-04-30T01:53:51.733Z,9.99
2023-04-30T01:57:04.602Z,9.80
2023-04-30T02:00:08.934Z,10.02
2023-04-30T02:03:10.654Z,9.92
2023-04-30T02:06:12.346Z,10.03
2023-04-30T02:09:13.966Z,10.08
2023-04-30T02:12:16.047Z,10.16
2023-04-30T02:15:17.775Z,10.14
2023-04-30T02:18:19.586Z,10.16
2023-04-30T02:21:21.308Z,9.86
2023-04-30T02:24:23.234Z,10.06
2023-04-30T02:27:26.161Z,10.10
2023-04-30T02:30:27.843Z,10.17
2023-04-30T02:33:32.752Z,10.13
2023-04-30T02:36:36.754Z,10.17
2023-04-30T02:39:38.360Z,10.22
2023-04-30T02:42:39.961Z,10.20
2023-04-30T02:45:41.667Z,10.23
2023-04-30T02:48:43.297Z,10.23
2023-04-30T02:51:44.886Z,10.16
2023-04-30T02:54:46.692Z,10.21
2023-04-30T02:57:48.596Z,10.08
2023-04-30T03:00:50.387Z,10.22
2023-04-30T03:03:52.112Z,10.26
2023-04-30T03:06:53.916Z,10.12
2023-04-30T03:09:55.921Z,10.14
2023-04-30T03:12:57.908Z,10.24
2023-04-30T03:16:04.687Z,10.29
2023-04-30T03:19:06.465Z,10.42
2023-04-30T03:22:08.024Z,10.49
2023-04-30T03:25:10.614Z,10.66
2023-04-30T03:28:14.646Z,10.56
2023-04-30T03:31:16.374Z,10.70
2023-04-30T03:34:18.007Z,10.60
2023-04-30T03:37:19.562Z,10.64
2023-04-30T03:40:21.483Z,10.57
2023-04-30T03:43:23.109Z,10.52
2023-04-30T03:46:26.115Z,10.64
2023-04-30T03:49:27.834Z,10.62
2023-04-30T03:52:30.327Z,10.65
2023-04-30T03:55:32.572Z,10.63
2023-04-30T03:58:34.016Z,10.51
2023-04-30T04:01:35.895Z,10.41
2023-04-30T04:04:37.699Z,10.50
2023-04-30T04:07:39.409Z,10.59
2023-04-30T04:10:41.150Z,10.67
2023-04-30T04:13:42.771Z,10.68
2023-04-30T04:16:44.770Z,10.69
2023-04-30T04:19:46.544Z,10.53
2023-04-30T04:22:48.145Z,10.40
2023-04-30T04:25:49.852Z,10.55
2023-04-30T04:28:52.081Z,10.54
2023-04-30T04:31:55.487Z,10.45
2023-04-30T04:34:57.184Z,10.47
2023-04-30T04:37:59.168Z,10.42
2023-04-30T04:41:00.840Z,10.33
2023-04-30T04:44:03.602Z,10.52
2023-04-30T04:47:05.307Z,10.46
2023-04-30T04:50:07.965Z,10.42
2023-04-30T04:53:09.654Z,10.39
2023-04-30T04:56:11.329Z,10.36
2023-04-30T04:59:13.381Z,10.52
2023-04-30T05:02:15.066Z,10.43
2023-04-30T05:05:16.661Z,10.50
2023-04-30T05:08:18.708Z,10.41
2023-04-30T05:11:22.060Z,10.45
2023-04-30T05:14:23.728Z,10.46
2023-04-30T05:17:25.358Z,10.52
2023-04-30T05:20:29.433Z,10.35
2023-04-30T05:23:31.069Z,10.51
2023-04-30T05:26:32.864Z,10.64
2023-04-30T05:29:34.520Z,10.63
2023-04-30T05:32:36.176Z,10.67
2023-04-30T05:35:40.188Z,10.58
2023-04-30T05:38:42.055Z,10.77
2023-04-30T05:41:43.663Z,10.93
2023-04-30T05:44:45.239Z,10.79
2023-04-30T05:47:46.915Z,10.97
2023-04-30T05:50:48.527Z,11.07
2023-04-30T05:53:50.185Z,11.16
2023-04-30T05:56:51.967Z,11.16
2023-04-30T05:59:54.865Z,11.24
2023-04-30T06:02:56.964Z,11.29
2023-04-30T06:05:58.785Z,11.19
2023-04-30T06:09:00.419Z,11.25
2023-04-30T06:12:02.545Z,11.45
2023-04-30T06:15:04.144Z,11.47
2023-04-30T06:18:05.833Z,11.49
2023-04-30T06:21:07.438Z,11.40
2023-04-30T06:24:09.409Z,11.60
2023-04-30T06:27:10.971Z,11.74
2023-04-30T06:30:15.957Z,11.89
2023-04-30T06:33:17.652Z,11.73
2023-04-30T06:36:19.788Z,11.84
2023-04-30T06:39:21.334Z,11.91
2023-04-30T06:42:23.072Z,12.06
2023-04-30T06:45:24.772Z,12.02
2023-04-30T06:48:26.482Z,12.07
2023-04-30T06:51:28.046Z,12.14
2023-04-30T06:54:29.693Z,12.15
2023-04-30T06:57:32.018Z,12.28
2023-04-30T07:00:34.238Z,12.31
2023-04-30T07:03:35.923Z,12.36
2023-04-30T07:06:37.947Z,12.43
2023-04-30T07:09:39.478Z,12.39
2023-04-30T07:12:43.966Z,12.57
2023-04-30T07:15:51.373Z,12.49
2023-04-30T07:18:53.073Z,12.47
2023-04-30T07:21:54.778Z,12.62
2023-04-30T07:24:56.376Z,12.83
2023-04-30T07:27:58.021Z,13.08
2023-04-30T07:31:00.436Z,12.94
2023-04-30T07:34:02.256Z,13.09
2023-04-30T07:37:03.821Z,13.29
2023-04-30T07:40:06.593Z,13.40
2023-04-30T07:43:08.245Z,13.71
2023-04-30T07:46:09.936Z,13.90
2023-04-30T07:49:14.467Z,14.04
2023-04-30T07:52:16.210Z,13.96
2023-04-30T07:55:28.578Z,14.11
2023-04-30T07:58:33.494Z,14.35
2023-04-30T08:01:35.672Z,14.21
2023-04-30T08:04:37.543Z,14.60
2023-04-30T08:07:39.982Z,14.80
2023-04-30T08:10:42.083Z,14.99
2023-04-30T08:13:48.496Z,15.07
2023-04-30T08:16:50.345Z,15.51
2023-04-30T08:19:52.506Z,15.45
2023-04-30T08:22:54.520Z,14.96
2023-04-30T08:25:56.302Z,14.58
2023-04-30T08:29:00.146Z,14.36
2023-04-30T08:32:03.074Z,14.58
2023-04-30T08:35:05.472Z,15.22
2023-04-30T08:38:09.354Z,15.42
2023-04-30T08:41:14.640Z,16.29
2023-04-30T08:44:16.575Z,16.46
2023-04-30T08:47:18.562Z,16.10
2023-04-30T08:50:20.151Z,16.48
2023-04-30T08:53:22.092Z,16.06
2023-04-30T08:56:25.910Z,16.05
2023-04-30T08:59:27.744Z,15.82
2023-04-30T09:02:31.689Z,15.51
2023-04-30T09:06:14.224Z,15.65
2023-04-30T09:09:19.694Z,15.70
2023-04-30T09:12:23.848Z,15.32
2023-04-30T09:15:42.049Z,15.09
2023-04-30T09:18:43.843Z,14.85
2023-04-30T09:21:47.064Z,15.60
2023-04-30T09:25:00.212Z,15.70
2023-04-30T09:28:29.096Z,15.17
2023-04-30T09:31:30.833Z,15.43
2023-04-30T09:34:38.227Z,15.44
2023-04-30T09:37:40.129Z,15.16
2023-04-30T09:40:42.098Z,15.18
2023-04-30T09:43:45.237Z,15.38
2023-04-30T09:46:47.262Z,15.62
2023-04-30T09:49:51.851Z,15.61
2023-04-30T09:52:53.908Z,15.61
2023-04-30T09:55:56.819Z,15.86
2023-04-30T09:59:00.066Z,16.20
2023-04-30T10:02:03.301Z,16.20
2023-04-30T10:05:05.227Z,16.39
2023-04-30T10:08:07.788Z,16.98
2023-04-30T10:11:12.956Z,17.34
2023-04-30T10:14:15.204Z,18.11
2023-04-30T10:17:17.315Z,17.20
2023-04-30T10:20:18.918Z,16.95
2023-04-30T10:23:21.897Z,16.57
2023-04-30T10:26:24.734Z,16.64
2023-04-30T10:29:26.340Z,16.53
2023-04-30T10:32:34.689Z,16.85
2023-04-30T10:35:49.798Z,16.83
2023-04-30T10:38:51.483Z,16.92
2023-04-30T10:42:00.309Z,16.92
2023-04-30T10:45:03.825Z,16.77
2023-04-30T10:48:06.529Z,16.46
2023-04-30T10:51:08.307Z,16.37
2023-04-30T10:54:10.080Z,16.51
2023-04-30T10:57:15.148Z,16.72
2023-04-30T11:00:20.509Z,16.91
2023-04-30T11:03:22.077Z,17.96
2023-04-30T11:06:28.791Z,17.92
2023-04-30T11:09:43.825Z,18.02
2023-04-30T11:12:53.955Z,18.36
2023-04-30T11:16:00.987Z,19.21
2023-04-30T11:19:15.310Z,18.29
2023-04-30T11:22:27.069Z,17.33
2023-04-30T11:25:37.262Z,17.94
2023-04-30T11:28:41.575Z,18.54
2023-04-30T11:32:17.641Z,18.25
2023-04-30T11:35:22.204Z,18.26
2023-04-30T11:38:33.381Z,18.02
2023-04-30T11:41:46.294Z,18.29
2023-04-30T11:45:28.273Z,18.20
2023-04-30T11:48:40.791Z,17.67
2023-04-30T11:51:49.951Z,18.08
2023-04-30T11:55:08.746Z,19.10
2023-04-30T11:58:39.371Z,18.29
2023-04-30T12:01:48.622Z,17.85
2023-04-30T12:04:59.414Z,17.80
2023-04-30T12:08:16.814Z,17.75
2023-04-30T12:11:30.041Z,18.79
2023-04-30T12:14:39.978Z,18.01
2023-04-30T12:17:44.156Z,17.97
2023-04-30T12:20:46.080Z,17.09
2023-04-30T12:24:04.257Z,17.36
2023-04-30T12:27:08.177Z,17.25
2023-04-30T12:30:21.202Z,17.71
2023-04-30T12:33:23.018Z,17.53
2023-04-30T12:36:35.614Z,17.84
2023-04-30T12:39:40.646Z,18.55
2023-04-30T12:42:43.336Z,18.42
2023-04-30T12:45:58.205Z,18.45
2023-04-30T12:49:01.757Z,18.22
2023-04-30T12:52:07.553Z,18.22
2023-04-30T12:55:18.610Z,18.91
2023-04-30T12:58:47.207Z,18.96
2023-04-30T13:01:58.319Z,18.39
2023-04-30T13:05:00.150Z,18.06
2023-04-30T13:08:06.455Z,17.71
2023-04-30T13:11:13.032Z,18.09
2023-04-30T13:14:14.764Z,17.75
2023-04-30T13:17:16.539Z,17.83
2023-04-30T13:23:52.097Z,17.50
2023-04-30T13:26:57.805Z,17.72
2023-04-30T13:30:03.659Z,18.07
2023-04-30T13:33:11.067Z,18.84
2023-04-30T13:36:16.299Z,19.09
2023-04-30T13:39:25.886Z,18.72
2023-04-30T13:46:20.696Z,18.79
2023-04-30T13:49:22.308Z,18.50
2023-04-30T13:53:10.244Z,18.67
2023-04-30T13:56:12.775Z,19.08
2023-04-30T14:05:05.798Z,18.28
2023-04-30T14:12:30.906Z,18.18
2023-04-30T14:15:33.242Z,18.40
2023-04-30T14:19:14.715Z,18.24
2023-04-30T14:22:06.731Z,17.96
2023-04-30T14:25:12.635Z,18.06
2023-04-30T14:28:52.340Z,18.22
2023-04-30T14:31:53.949Z,18.00
2023-04-30T14:35:08.456Z,17.99
2023-04-30T14:38:10.210Z,18.34
2023-04-30T14:41:12.469Z,18.34
2023-04-30T14:44:29.706Z,17.76
2023-04-30T14:51:17.386Z,17.48
2023-04-30T14:54:19.026Z,17.83
2023-04-30T14:57:21.913Z,17.77
2023-04-30T15:00:23.534Z,18.17
2023-04-30T15:03:25.492Z,18.07
2023-04-30T15:06:27.490Z,18.20
2023-04-30T15:09:50.586Z,18.18
2023-04-30T15:21:38.180Z,18.08
2023-04-30T15:24:39.872Z,18.17
2023-04-30T15:27:47.049Z,17.94
2023-04-30T15:34:59.277Z,17.46
2023-04-30T15:43:10.201Z,17.34
2023-04-30T15:46:15.378Z,17.26
2023-04-30T15:52:48.450Z,17.19
2023-04-30T15:55:56.505Z,17.32
2023-04-30T15:58:59.313Z,17.37
2023-04-30T16:02:58.347Z,17.34
2023-04-30T16:06:01.140Z,17.23
2023-04-30T16:09:08.955Z,17.20
2023-04-30T16:12:11.206Z,17.12
2023-04-30T16:15:12.859Z,17.00
2023-04-30T16:18:21.594Z,16.95
2023-04-30T16:21:23.992Z,17.07
2023-04-30T16:24:28.473Z,17.12
2023-04-30T16:27:37.171Z,17.14
2023-04-30T16:30:39.169Z,17.02
2023-04-30T16:33:41.319Z,16.75
2023-04-30T16:36:46.265Z,16.81
2023-04-30T16:39:48.032Z,16.65
2023-04-30T16:42:50.270Z,16.66
2023-04-30T16:45:52.973Z,16.75
2023-04-30T16:48:56.037Z,16.67
2023-04-30T16:51:57.680Z,16.66
2023-04-30T16:54:59.459Z,16.73
2023-04-30T16:58:03.931Z,16.68
2023-04-30T17:01:21.641Z,16.70
2023-04-30T17:04:23.356Z,16.56
2023-04-30T17:07:25.691Z,16.63
2023-04-30T17:10:30.316Z,16.57
2023-04-30T17:13:34.743Z,16.42
2023-04-30T17:16:38.008Z,16.56
2023-04-30T17:19:39.906Z,16.37
2023-04-30T17:22:44.110Z,16.41
2023-04-30T17:25:45.941Z,16.45
2023-04-30T17:28:47.763Z,16.44
2023-04-30T17:31:53.614Z,16.43
2023-04-30T17:35:11.002Z,16.30
2023-04-30T17:38:15.890Z,16.18
2023-04-30T17:41:24.209Z,16.05
2023-04-30T17:44:30.981Z,15.98
2023-04-30T17:47:33.168Z,15.87
2023-04-30T17:50:34.983Z,15.84
2023-04-30T17:54:09.079Z,15.77
2023-04-30T17:57:07.668Z,15.76
2023-04-30T18:00:12.977Z,15.70
2023-04-30T18:03:14.822Z,15.64
2023-04-30T18:06:27.257Z,15.65
2023-04-30T18:09:32.396Z,15.60
2023-04-30T18:15:53.961Z,15.39
2023-04-30T18:18:58.618Z,15.32
2023-04-30T18:22:01.700Z,15.37
2023-04-30T18:25:11.376Z,15.10
2023-04-30T18:28:13.462Z,15.05
2023-04-30T18:31:15.322Z,14.95
2023-04-30T18:34:20.081Z,14.61
2023-04-30T18:37:21.911Z,14.57
2023-04-30T18:40:26.614Z,14.72
2023-04-30T18:43:28.433Z,14.59
2023-04-30T18:46:31.601Z,14.56
2023-04-30T18:49:45.767Z,14.36
2023-04-30T18:52:47.573Z,14.19
2023-04-30T18:55:54.337Z,14.23
2023-04-30T18:58:55.967Z,14.09
2023-04-30T19:01:57.809Z,14.03
2023-04-30T19:04:59.671Z,14.01
2023-04-30T19:08:01.638Z,13.83
2023-04-30T19:11:03.368Z,13.65
2023-04-30T19:14:09.529Z,13.40
2023-04-30T19:17:14.616Z,13.45
2023-04-30T19:20:19.292Z,13.34
2023-04-30T19:23:23.699Z,13.26
2023-04-30T19:26:26.071Z,13.13
2023-04-30T19:29:29.638Z,13.15
2023-04-30T19:32:31.714Z,13.07
2023-04-30T19:35:34.772Z,12.67
2023-04-30T19:38:36.619Z,12.69
2023-04-30T19:41:39.026Z,12.67
2023-04-30T19:44:42.958Z,12.69
2023-04-30T19:47:44.616Z,12.48
2023-04-30T19:50:47.079Z,12.45
2023-04-30T19:53:48.809Z,12.31
2023-04-30T19:56:53.159Z,12.14
2023-04-30T19:59:54.932Z,12.19
2023-04-30T20:02:58.764Z,12.12
2023-04-30T20:06:05.989Z,12.01
2023-04-30T20:09:07.848Z,12.07
2023-04-30T20:12:09.804Z,11.93
2023-04-30T20:15:11.544Z,11.93
2023-04-30T20:18:13.343Z,11.74
2023-04-30T20:21:15.163Z,11.87
2023-04-30T20:24:19.242Z,11.70
2023-04-30T20:27:20.907Z,11.58
2023-04-30T20:30:22.661Z,11.75
2023-04-30T20:33:25.927Z,11.58
2023-04-30T20:36:33.868Z,11.44
2023-04-30T20:39:35.515Z,11.29
2023-04-30T20:42:38.737Z,11.38
2023-04-30T20:45:42.498Z,11.27
2023-04-30T20:48:54.645Z,11.07
2023-04-30T20:51:56.225Z,11.10
2023-04-30T20:54:59.403Z,11.01
2023-04-30T20:58:01.955Z,10.86
2023-04-30T21:01:03.871Z,10.97
2023-04-30T21:04:05.606Z,10.89
2023-04-30T21:07:07.310Z,10.88
2023-04-30T21:10:12.402Z,10.80
2023-04-30T21:13:15.068Z,10.66
2023-04-30T21:16:16.738Z,10.68
2023-04-30T21:19:24.378Z,10.63
2023-04-30T21:22:26.043Z,10.71
2023-04-30T21:25:27.622Z,10.55
2023-04-30T21:28:29.192Z,10.48
2023-04-30T21:31:30.849Z,10.40
2023-04-30T21:34:32.790Z,10.34
2023-04-30T21:37:34.485Z,10.27
2023-04-30T21:40:36.085Z,10.22
2023-04-30T21:43:37.747Z,10.16
2023-04-30T21:46:42.224Z,10.25
2023-04-30T21:49:44.115Z,10.06
2023-04-30T21:52:45.751Z,9.97
2023-04-30T21:55:49.562Z,10.05
2023-04-30T21:58:51.439Z,10.05
2023-04-30T22:01:53.428Z,10.09
2023-04-30T22:04:55.488Z,10.11
2023-04-30T22:07:57.114Z,10.02
2023-04-30T22:10:59.753Z,9.88
2023-04-30T22:14:04.229Z,9.74
2023-04-30T22:17:06.052Z,9.77
2023-04-30T22:20:10.382Z,9.72
2023-04-30T22:23:12.407Z,9.75
2023-04-30T22:26:14.000Z,9.69
2023-04-30T22:29:15.681Z,9.62
2023-04-30T22:32:19.314Z,9.70
2023-04-30T22:35:21.042Z,9.61
2023-04-30T22:38:22.695Z,9.66
2023-04-30T22:41:24.584Z,9.64
2023-04-30T22:44:26.502Z,9.62
2023-04-30T22:47:28.147Z,9.51
2023-04-30T22:50:31.083Z,9.45
2023-04-30T22:53:33.648Z,9.39
2023-04-30T22:56:35.653Z,9.22
2023-04-30T22:59:37.602Z,9.33
2023-04-30T23:02:39.383Z,9.36
2023-04-30T23:05:41.072Z,9.27
2023-04-30T23:08:42.643Z,9.36
2023-04-30T23:11:45.009Z,9.32
2023-04-30T23:14:46.640Z,9.33
2023-04-30T23:17:48.325Z,9.24
2023-04-30T23:20:49.966Z,9.21
2023-04-30T23:23:51.553Z,9.20
2023-04-30T23:26:53.268Z,9.13
2023-04-30T23:29:56.421Z,9.02
2023-04-30T23:32:58.312Z,8.94
2023-04-30T23:35:59.892Z,8.89
2023-04-30T23:39:01.508Z,8.92
2023-04-30T23:42:03.359Z,8.88
2023-04-30T23:45:05.897Z,8.83
2023-04-30T23:48:07.762Z,8.73
2023-04-30T23:51:09.583Z,8.77
2023-04-30T23:54:12.064Z,8.74
2023-04-30T23:57:13.645Z,8.67
